Aviation Forecast PDF Print E-mail

 
met_logo

NATIONAL METEOROLOGICAL SERVICE OF BELIZE

Area Forecast for the Country of Belize


For the period from:

1200 26 APRIL 2017

to

2400 26 APRIL 2017

All Heights in the forecast are above sea level. PS= Positive, MS= Minus. All times are UTC.


A.

SPECIAL FEATURES of the METEOROLOGICAL SITUATION

WARM , MODERATE AND DRY SOUTHEASTERLY AIRFLOW PREVAILING OVER AREA...

B.

HEIGHT (Ft)

WIND (True Degrees and Knots)

TEMPERATURE (°C)

Surface

 12010 

  

PS32-37

2,000

13020

PS22

5,000

16015

PS20

10,000

32010

PS12

C.

CLOUDS (Amount, Type, Ceiling and Top(optional))

 

 FEW CU BASES 2300FT TOPS 5000FT

 

 

 

 


D.

SURFACE VISIBILITY:  20KM . 5-8KM IN SHRA . 500M IN HILL FOG . 


E.

WEATHER:  CLEAR / PARTLY CLOUDY . VERY LITTLE OR NO RAIN EXPECTED . EARLY MORNING HILL FOG .


Remarks, Warnings, Turbulence

Barometric Changes

LOW CLOUDS COVERING HILLS

DIURNAL(FALLING)

G.

OUTLOOK:

TO 1200 27 APR 2017

SIMILAR

H. 

TAF MZBZ

261035Z 2612/2712 12009KT 9999 SCT023=

Meteorological Office:

BELIZE

Issued at:

1120 26 APRIL 2017

Forecaster:

RUDON